sensor_id;sensor_type;location;lat;lon;timestamp;P1;durP1;ratioP1;P2;durP2;ratioP2
20986;SDS011;10652;50.306;8.570;2022-07-21T00:04:06;10.95;;;9.52;;
20986;SDS011;10652;50.306;8.570;2022-07-21T00:08:08;12.73;;;9.85;;
20986;SDS011;10652;50.306;8.570;2022-07-21T00:12:10;11.43;;;10.23;;
20986;SDS011;10652;50.306;8.570;2022-07-21T00:16:12;10.65;;;9.65;;
20986;SDS011;10652;50.306;8.570;2022-07-21T00:20:22;10.80;;;9.25;;
20986;SDS011;10652;50.306;8.570;2022-07-21T00:24:25;12.10;;;10.45;;
20986;SDS011;10652;50.306;8.570;2022-07-21T00:28:27;11.65;;;10.10;;
20986;SDS011;10652;50.306;8.570;2022-07-21T00:32:29;13.85;;;11.05;;
20986;SDS011;10652;50.306;8.570;2022-07-21T00:36:36;14.95;;;11.20;;
20986;SDS011;10652;50.306;8.570;2022-07-21T00:40:38;12.52;;;11.20;;
20986;SDS011;10652;50.306;8.570;2022-07-21T00:44:41;14.07;;;11.02;;
20986;SDS011;10652;50.306;8.570;2022-07-21T00:48:43;13.98;;;12.55;;
20986;SDS011;10652;50.306;8.570;2022-07-21T00:52:45;14.52;;;11.23;;
20986;SDS011;10652;50.306;8.570;2022-07-21T00:56:49;16.50;;;11.70;;
20986;SDS011;10652;50.306;8.570;2022-07-21T01:00:51;15.35;;;13.30;;
20986;SDS011;10652;50.306;8.570;2022-07-21T01:04:54;16.52;;;14.73;;
20986;SDS011;10652;50.306;8.570;2022-07-21T01:08:56;17.10;;;15.13;;
20986;SDS011;10652;50.306;8.570;2022-07-21T01:13:01;16.52;;;14.55;;
20986;SDS011;10652;50.306;8.570;2022-07-21T01:17:04;18.65;;;15.32;;
20986;SDS011;10652;50.306;8.570;2022-07-21T01:21:16;13.93;;;12.50;;
20986;SDS011;10652;50.306;8.570;2022-07-21T01:25:28;14.25;;;10.88;;
20986;SDS011;10652;50.306;8.570;2022-07-21T01:29:30;14.70;;;11.02;;
20986;SDS011;10652;50.306;8.570;2022-07-21T01:33:33;11.93;;;10.20;;
20986;SDS011;10652;50.306;8.570;2022-07-21T01:37:36;40.95;;;24.17;;
20986;SDS011;10652;50.306;8.570;2022-07-21T01:41:40;15.15;;;11.82;;
20986;SDS011;10652;50.306;8.570;2022-07-21T01:45:42;11.15;;;9.68;;
20986;SDS011;10652;50.306;8.570;2022-07-21T01:49:44;12.07;;;9.68;;
20986;SDS011;10652;50.306;8.570;2022-07-21T01:53:46;12.52;;;9.02;;
20986;SDS011;10652;50.306;8.570;2022-07-21T01:57:48;10.90;;;8.25;;
20986;SDS011;10652;50.306;8.570;2022-07-21T02:01:51;9.90;;;7.95;;
20986;SDS011;10652;50.306;8.570;2022-07-21T02:05:59;8.75;;;6.40;;
20986;SDS011;10652;50.306;8.570;2022-07-21T02:10:02;8.32;;;6.40;;
20986;SDS011;10652;50.306;8.570;2022-07-21T02:14:04;8.35;;;6.70;;
20986;SDS011;10652;50.306;8.570;2022-07-21T02:18:06;8.00;;;6.93;;
20986;SDS011;10652;50.306;8.570;2022-07-21T02:22:08;10.35;;;7.00;;
20986;SDS011;10652;50.306;8.570;2022-07-21T02:26:11;8.75;;;7.07;;
20986;SDS011;10652;50.306;8.570;2022-07-21T02:30:13;7.85;;;6.70;;
20986;SDS011;10652;50.306;8.570;2022-07-21T02:34:15;8.60;;;6.78;;
20986;SDS011;10652;50.306;8.570;2022-07-21T02:38:17;7.57;;;6.78;;
20986;SDS011;10652;50.306;8.570;2022-07-21T02:42:19;7.22;;;6.53;;
20986;SDS011;10652;50.306;8.570;2022-07-21T02:46:22;7.78;;;6.25;;
20986;SDS011;10652;50.306;8.570;2022-07-21T02:50:29;9.05;;;6.47;;
20986;SDS011;10652;50.306;8.570;2022-07-21T02:54:33;7.05;;;6.35;;
20986;SDS011;10652;50.306;8.570;2022-07-21T02:58:35;8.88;;;6.20;;
20986;SDS011;10652;50.306;8.570;2022-07-21T03:02:37;6.65;;;5.95;;
20986;SDS011;10652;50.306;8.570;2022-07-21T03:06:39;7.28;;;5.20;;
20986;SDS011;10652;50.306;8.570;2022-07-21T03:10:41;7.82;;;5.30;;
20986;SDS011;10652;50.306;8.570;2022-07-21T03:14:44;7.13;;;5.50;;
20986;SDS011;10652;50.306;8.570;2022-07-21T03:18:46;6.57;;;4.68;;
20986;SDS011;10652;50.306;8.570;2022-07-21T03:22:49;5.93;;;4.68;;
20986;SDS011;10652;50.306;8.570;2022-07-21T03:26:51;6.28;;;4.82;;
20986;SDS011;10652;50.306;8.570;2022-07-21T03:30:53;5.88;;;4.45;;
20986;SDS011;10652;50.306;8.570;2022-07-21T03:34:56;6.57;;;4.97;;
20986;SDS011;10652;50.306;8.570;2022-07-21T03:38:58;6.43;;;5.00;;
20986;SDS011;10652;50.306;8.570;2022-07-21T03:43:00;6.28;;;4.85;;
20986;SDS011;10652;50.306;8.570;2022-07-21T03:47:05;7.50;;;4.22;;
20986;SDS011;10652;50.306;8.570;2022-07-21T03:51:07;5.05;;;4.20;;
20986;SDS011;10652;50.306;8.570;2022-07-21T03:55:10;4.68;;;4.10;;
20986;SDS011;10652;50.306;8.570;2022-07-21T03:59:16;5.60;;;3.67;;
20986;SDS011;10652;50.306;8.570;2022-07-21T04:03:19;5.13;;;3.53;;
20986;SDS011;10652;50.306;8.570;2022-07-21T04:07:21;3.78;;;2.90;;
20986;SDS011;10652;50.306;8.570;2022-07-21T04:11:23;3.97;;;3.58;;
20986;SDS011;10652;50.306;8.570;2022-07-21T04:15:25;3.30;;;2.95;;
20986;SDS011;10652;50.306;8.570;2022-07-21T04:19:28;4.40;;;3.05;;
20986;SDS011;10652;50.306;8.570;2022-07-21T04:23:30;4.30;;;2.95;;
20986;SDS011;10652;50.306;8.570;2022-07-21T04:27:33;5.72;;;3.42;;
20986;SDS011;10652;50.306;8.570;2022-07-21T04:31:36;4.55;;;3.80;;
20986;SDS011;10652;50.306;8.570;2022-07-21T04:35:38;7.10;;;3.95;;
20986;SDS011;10652;50.306;8.570;2022-07-21T04:39:40;3.40;;;3.00;;
20986;SDS011;10652;50.306;8.570;2022-07-21T04:43:43;5.63;;;3.65;;
20986;SDS011;10652;50.306;8.570;2022-07-21T04:47:46;4.18;;;3.15;;
20986;SDS011;10652;50.306;8.570;2022-07-21T04:51:50;4.70;;;3.28;;
20986;SDS011;10652;50.306;8.570;2022-07-21T04:55:52;4.28;;;3.75;;
20986;SDS011;10652;50.306;8.570;2022-07-21T04:59:54;5.50;;;3.33;;
20986;SDS011;10652;50.306;8.570;2022-07-21T05:03:56;4.43;;;3.08;;
20986;SDS011;10652;50.306;8.570;2022-07-21T05:07:58;4.47;;;3.30;;
20986;SDS011;10652;50.306;8.570;2022-07-21T05:12:00;5.00;;;3.50;;
20986;SDS011;10652;50.306;8.570;2022-07-21T05:16:02;4.80;;;3.70;;
20986;SDS011;10652;50.306;8.570;2022-07-21T05:20:06;6.07;;;3.88;;
20986;SDS011;10652;50.306;8.570;2022-07-21T05:24:09;4.43;;;3.30;;
20986;SDS011;10652;50.306;8.570;2022-07-21T05:28:11;3.75;;;3.30;;
20986;SDS011;10652;50.306;8.570;2022-07-21T05:32:13;8.73;;;3.38;;
20986;SDS011;10652;50.306;8.570;2022-07-21T05:36:16;3.97;;;3.10;;
20986;SDS011;10652;50.306;8.570;2022-07-21T05:40:20;4.60;;;3.17;;
20986;SDS011;10652;50.306;8.570;2022-07-21T05:44:22;3.63;;;3.33;;
20986;SDS011;10652;50.306;8.570;2022-07-21T05:48:24;4.38;;;3.30;;
20986;SDS011;10652;50.306;8.570;2022-07-21T05:52:26;4.72;;;3.60;;
20986;SDS011;10652;50.306;8.570;2022-07-21T05:56:28;4.65;;;4.10;;
20986;SDS011;10652;50.306;8.570;2022-07-21T06:00:30;6.22;;;4.00;;
20986;SDS011;10652;50.306;8.570;2022-07-21T06:04:32;6.15;;;4.30;;
20986;SDS011;10652;50.306;8.570;2022-07-21T06:08:36;4.57;;;4.05;;
20986;SDS011;10652;50.306;8.570;2022-07-21T06:18:09;4.22;;;3.80;;
20986;SDS011;10652;50.306;8.570;2022-07-21T06:22:11;6.88;;;4.00;;
20986;SDS011;10652;50.306;8.570;2022-07-21T06:26:14;4.20;;;3.78;;
20986;SDS011;10652;50.306;8.570;2022-07-21T06:30:16;4.97;;;3.67;;
20986;SDS011;10652;50.306;8.570;2022-07-21T06:34:18;4.82;;;3.83;;
20986;SDS011;10652;50.306;8.570;2022-07-21T06:38:20;4.53;;;4.05;;
20986;SDS011;10652;50.306;8.570;2022-07-21T06:42:22;5.85;;;3.92;;
20986;SDS011;10652;50.306;8.570;2022-07-21T06:46:24;4.53;;;4.13;;
20986;SDS011;10652;50.306;8.570;2022-07-21T06:50:27;5.57;;;4.32;;
20986;SDS011;10652;50.306;8.570;2022-07-21T06:54:29;6.53;;;3.95;;
20986;SDS011;10652;50.306;8.570;2022-07-21T06:58:31;4.20;;;3.80;;
20986;SDS011;10652;50.306;8.570;2022-07-21T07:02:40;3.95;;;3.28;;
20986;SDS011;10652;50.306;8.570;2022-07-21T07:06:43;5.75;;;3.80;;
20986;SDS011;10652;50.306;8.570;2022-07-21T07:10:45;4.10;;;3.67;;
20986;SDS011;10652;50.306;8.570;2022-07-21T07:19:53;4.40;;;3.40;;
20986;SDS011;10652;50.306;8.570;2022-07-21T07:23:55;5.60;;;3.83;;
20986;SDS011;10652;50.306;8.570;2022-07-21T07:27:58;5.72;;;3.63;;
20986;SDS011;10652;50.306;8.570;2022-07-21T07:32:00;4.03;;;3.53;;
20986;SDS011;10652;50.306;8.570;2022-07-21T07:36:03;4.32;;;3.83;;
20986;SDS011;10652;50.306;8.570;2022-07-21T07:40:06;4.18;;;3.15;;
20986;SDS011;10652;50.306;8.570;2022-07-21T07:44:11;5.35;;;3.53;;
20986;SDS011;10652;50.306;8.570;2022-07-21T07:48:13;4.78;;;3.45;;
20986;SDS011;10652;50.306;8.570;2022-07-21T07:52:15;4.47;;;3.20;;
20986;SDS011;10652;50.306;8.570;2022-07-21T07:56:17;5.82;;;2.75;;
20986;SDS011;10652;50.306;8.570;2022-07-21T08:00:20;4.40;;;3.35;;
20986;SDS011;10652;50.306;8.570;2022-07-21T08:04:42;5.85;;;3.40;;
20986;SDS011;10652;50.306;8.570;2022-07-21T08:08:44;4.38;;;3.13;;
20986;SDS011;10652;50.306;8.570;2022-07-21T08:12:46;4.57;;;3.28;;
20986;SDS011;10652;50.306;8.570;2022-07-21T08:16:48;4.03;;;3.42;;
20986;SDS011;10652;50.306;8.570;2022-07-21T08:20:50;3.25;;;2.92;;
20986;SDS011;10652;50.306;8.570;2022-07-21T08:24:53;4.95;;;2.97;;
20986;SDS011;10652;50.306;8.570;2022-07-21T08:28:55;4.43;;;3.60;;
20986;SDS011;10652;50.306;8.570;2022-07-21T08:32:59;4.05;;;3.30;;
20986;SDS011;10652;50.306;8.570;2022-07-21T08:37:02;4.68;;;3.30;;
20986;SDS011;10652;50.306;8.570;2022-07-21T08:41:04;4.45;;;3.35;;
20986;SDS011;10652;50.306;8.570;2022-07-21T08:45:06;3.63;;;3.28;;
20986;SDS011;10652;50.306;8.570;2022-07-21T08:49:09;3.80;;;3.35;;
20986;SDS011;10652;50.306;8.570;2022-07-21T08:53:12;3.38;;;3.08;;
20986;SDS011;10652;50.306;8.570;2022-07-21T08:57:14;3.13;;;2.83;;
20986;SDS011;10652;50.306;8.570;2022-07-21T09:01:16;4.40;;;2.97;;
20986;SDS011;10652;50.306;8.570;2022-07-21T09:05:18;4.55;;;2.90;;
20986;SDS011;10652;50.306;8.570;2022-07-21T09:09:21;4.00;;;2.83;;
20986;SDS011;10652;50.306;8.570;2022-07-21T09:13:24;4.25;;;2.78;;
20986;SDS011;10652;50.306;8.570;2022-07-21T09:17:26;4.13;;;2.75;;
20986;SDS011;10652;50.306;8.570;2022-07-21T09:21:48;2.90;;;2.60;;
20986;SDS011;10652;50.306;8.570;2022-07-21T09:25:53;3.15;;;2.83;;
20986;SDS011;10652;50.306;8.570;2022-07-21T09:29:57;4.65;;;3.42;;
20986;SDS011;10652;50.306;8.570;2022-07-21T09:34:01;3.53;;;2.88;;
20986;SDS011;10652;50.306;8.570;2022-07-21T09:38:12;3.47;;;2.30;;
20986;SDS011;10652;50.306;8.570;2022-07-21T09:42:19;2.85;;;2.65;;
20986;SDS011;10652;50.306;8.570;2022-07-21T09:46:27;3.15;;;2.80;;
20986;SDS011;10652;50.306;8.570;2022-07-21T09:50:31;3.15;;;2.67;;
20986;SDS011;10652;50.306;8.570;2022-07-21T09:54:34;3.95;;;3.10;;
20986;SDS011;10652;50.306;8.570;2022-07-21T09:58:36;4.07;;;2.60;;
20986;SDS011;10652;50.306;8.570;2022-07-21T10:02:38;5.00;;;2.67;;
20986;SDS011;10652;50.306;8.570;2022-07-21T10:06:40;5.85;;;3.20;;
20986;SDS011;10652;50.306;8.570;2022-07-21T10:10:43;6.57;;;3.20;;
20986;SDS011;10652;50.306;8.570;2022-07-21T10:15:05;6.28;;;3.40;;
20986;SDS011;10652;50.306;8.570;2022-07-21T10:19:22;7.60;;;4.25;;
20986;SDS011;10652;50.306;8.570;2022-07-21T10:23:37;5.15;;;3.95;;
20986;SDS011;10652;50.306;8.570;2022-07-21T10:28:11;5.53;;;4.05;;
20986;SDS011;10652;50.306;8.570;2022-07-21T10:32:15;7.32;;;4.28;;
20986;SDS011;10652;50.306;8.570;2022-07-21T10:56:41;4.07;;;3.35;;
20986;SDS011;10652;50.306;8.570;2022-07-21T11:05:05;7.53;;;4.50;;
20986;SDS011;10652;50.306;8.570;2022-07-21T11:09:09;4.43;;;3.63;;
20986;SDS011;10652;50.306;8.570;2022-07-21T11:13:13;4.63;;;3.78;;
20986;SDS011;10652;50.306;8.570;2022-07-21T11:17:23;5.57;;;3.90;;
20986;SDS011;10652;50.306;8.570;2022-07-21T11:21:30;3.90;;;3.47;;
20986;SDS011;10652;50.306;8.570;2022-07-21T11:25:33;4.53;;;4.10;;
20986;SDS011;10652;50.306;8.570;2022-07-21T11:29:36;4.00;;;3.20;;
20986;SDS011;10652;50.306;8.570;2022-07-21T11:33:42;3.38;;;2.92;;
20986;SDS011;10652;50.306;8.570;2022-07-21T11:37:45;3.00;;;2.70;;
20986;SDS011;10652;50.306;8.570;2022-07-21T11:41:48;4.50;;;3.10;;
20986;SDS011;10652;50.306;8.570;2022-07-21T11:45:53;4.47;;;3.17;;
20986;SDS011;10652;50.306;8.570;2022-07-21T11:49:57;3.53;;;2.63;;
20986;SDS011;10652;50.306;8.570;2022-07-21T11:54:02;2.73;;;2.03;;
20986;SDS011;10652;50.306;8.570;2022-07-21T11:58:05;3.42;;;2.20;;
20986;SDS011;10652;50.306;8.570;2022-07-21T12:02:17;2.92;;;2.60;;
20986;SDS011;10652;50.306;8.570;2022-07-21T12:06:21;2.83;;;2.20;;
20986;SDS011;10652;50.306;8.570;2022-07-21T12:10:27;2.60;;;2.10;;
20986;SDS011;10652;50.306;8.570;2022-07-21T12:19:15;3.33;;;2.28;;
20986;SDS011;10652;50.306;8.570;2022-07-21T12:23:26;4.15;;;1.98;;
20986;SDS011;10652;50.306;8.570;2022-07-21T12:27:31;2.28;;;2.08;;
20986;SDS011;10652;50.306;8.570;2022-07-21T12:31:34;3.13;;;2.08;;
20986;SDS011;10652;50.306;8.570;2022-07-21T12:35:38;2.45;;;1.90;;
20986;SDS011;10652;50.306;8.570;2022-07-21T12:39:42;2.45;;;2.25;;
20986;SDS011;10652;50.306;8.570;2022-07-21T12:44:00;3.50;;;2.35;;
20986;SDS011;10652;50.306;8.570;2022-07-21T12:48:07;2.42;;;2.13;;
20986;SDS011;10652;50.306;8.570;2022-07-21T12:52:13;2.80;;;2.40;;
20986;SDS011;10652;50.306;8.570;2022-07-21T12:56:16;2.97;;;2.30;;
20986;SDS011;10652;50.306;8.570;2022-07-21T13:00:20;2.67;;;2.47;;
20986;SDS011;10652;50.306;8.570;2022-07-21T13:04:22;3.58;;;2.30;;
20986;SDS011;10652;50.306;8.570;2022-07-21T13:08:24;2.75;;;2.53;;
20986;SDS011;10652;50.306;8.570;2022-07-21T13:12:28;2.50;;;2.30;;
20986;SDS011;10652;50.306;8.570;2022-07-21T13:16:30;2.60;;;2.40;;
20986;SDS011;10652;50.306;8.570;2022-07-21T13:20:33;3.17;;;2.78;;
20986;SDS011;10652;50.306;8.570;2022-07-21T13:24:36;4.65;;;3.10;;
20986;SDS011;10652;50.306;8.570;2022-07-21T13:28:38;3.22;;;2.92;;
20986;SDS011;10652;50.306;8.570;2022-07-21T13:32:41;3.25;;;2.95;;
20986;SDS011;10652;50.306;8.570;2022-07-21T13:36:43;3.03;;;2.53;;
20986;SDS011;10652;50.306;8.570;2022-07-21T13:40:46;4.90;;;2.30;;
20986;SDS011;10652;50.306;8.570;2022-07-21T13:45:08;3.83;;;2.88;;
20986;SDS011;10652;50.306;8.570;2022-07-21T13:49:13;3.15;;;2.85;;
20986;SDS011;10652;50.306;8.570;2022-07-21T13:53:15;3.17;;;2.63;;
20986;SDS011;10652;50.306;8.570;2022-07-21T13:57:17;4.05;;;2.67;;
20986;SDS011;10652;50.306;8.570;2022-07-21T14:01:19;3.60;;;2.80;;
20986;SDS011;10652;50.306;8.570;2022-07-21T14:05:21;3.22;;;2.90;;
20986;SDS011;10652;50.306;8.570;2022-07-21T14:09:24;3.03;;;2.65;;
20986;SDS011;10652;50.306;8.570;2022-07-21T14:13:26;4.45;;;3.20;;
20986;SDS011;10652;50.306;8.570;2022-07-21T14:17:28;3.00;;;2.78;;
20986;SDS011;10652;50.306;8.570;2022-07-21T14:21:30;3.83;;;2.92;;
20986;SDS011;10652;50.306;8.570;2022-07-21T14:25:32;3.63;;;2.80;;
20986;SDS011;10652;50.306;8.570;2022-07-21T14:29:35;3.55;;;3.25;;
20986;SDS011;10652;50.306;8.570;2022-07-21T14:33:37;4.53;;;3.33;;
20986;SDS011;10652;50.306;8.570;2022-07-21T14:37:39;3.97;;;3.08;;
20986;SDS011;10652;50.306;8.570;2022-07-21T14:41:41;3.72;;;3.00;;
20986;SDS011;10652;50.306;8.570;2022-07-21T14:45:43;3.88;;;3.58;;
20986;SDS011;10652;50.306;8.570;2022-07-21T14:49:45;4.15;;;3.63;;
20986;SDS011;10652;50.306;8.570;2022-07-21T14:53:47;4.15;;;3.75;;
20986;SDS011;10652;50.306;8.570;2022-07-21T14:57:49;3.22;;;2.90;;
20986;SDS011;10652;50.306;8.570;2022-07-21T15:01:52;4.57;;;3.45;;
20986;SDS011;10652;50.306;8.570;2022-07-21T15:05:54;4.63;;;2.97;;
20986;SDS011;10652;50.306;8.570;2022-07-21T15:09:56;4.15;;;3.53;;
20986;SDS011;10652;50.306;8.570;2022-07-21T15:14:00;3.92;;;3.38;;
20986;SDS011;10652;50.306;8.570;2022-07-21T15:18:02;4.65;;;3.78;;
20986;SDS011;10652;50.306;8.570;2022-07-21T15:22:05;4.03;;;3.33;;
20986;SDS011;10652;50.306;8.570;2022-07-21T15:26:07;5.45;;;3.72;;
20986;SDS011;10652;50.306;8.570;2022-07-21T15:30:10;3.33;;;2.97;;
20986;SDS011;10652;50.306;8.570;2022-07-21T15:34:14;4.65;;;3.53;;
20986;SDS011;10652;50.306;8.570;2022-07-21T15:38:16;4.22;;;3.38;;
20986;SDS011;10652;50.306;8.570;2022-07-21T15:42:18;5.15;;;3.60;;
20986;SDS011;10652;50.306;8.570;2022-07-21T15:46:20;4.57;;;3.65;;
20986;SDS011;10652;50.306;8.570;2022-07-21T15:50:23;4.65;;;3.47;;
20986;SDS011;10652;50.306;8.570;2022-07-21T15:54:25;3.55;;;3.03;;
20986;SDS011;10652;50.306;8.570;2022-07-21T15:58:47;4.22;;;3.30;;
20986;SDS011;10652;50.306;8.570;2022-07-21T16:03:08;5.15;;;3.10;;
20986;SDS011;10652;50.306;8.570;2022-07-21T16:07:10;4.90;;;3.80;;
20986;SDS011;10652;50.306;8.570;2022-07-21T16:11:13;5.70;;;3.50;;
20986;SDS011;10652;50.306;8.570;2022-07-21T16:15:16;3.80;;;3.35;;
20986;SDS011;10652;50.306;8.570;2022-07-21T16:19:20;4.10;;;3.20;;
20986;SDS011;10652;50.306;8.570;2022-07-21T16:23:24;5.07;;;3.60;;
20986;SDS011;10652;50.306;8.570;2022-07-21T16:27:26;3.55;;;3.25;;
20986;SDS011;10652;50.306;8.570;2022-07-21T16:31:29;4.22;;;3.25;;
20986;SDS011;10652;50.306;8.570;2022-07-21T16:35:31;4.43;;;3.50;;
20986;SDS011;10652;50.306;8.570;2022-07-21T16:39:33;3.92;;;3.45;;
20986;SDS011;10652;50.306;8.570;2022-07-21T16:43:36;5.10;;;3.50;;
20986;SDS011;10652;50.306;8.570;2022-07-21T16:47:38;4.57;;;3.45;;
20986;SDS011;10652;50.306;8.570;2022-07-21T16:51:41;4.13;;;3.10;;
20986;SDS011;10652;50.306;8.570;2022-07-21T16:55:43;3.55;;;3.25;;
20986;SDS011;10652;50.306;8.570;2022-07-21T16:59:47;3.47;;;3.17;;
20986;SDS011;10652;50.306;8.570;2022-07-21T17:03:49;4.15;;;3.47;;
20986;SDS011;10652;50.306;8.570;2022-07-21T17:07:52;3.92;;;3.63;;
20986;SDS011;10652;50.306;8.570;2022-07-21T17:11:54;4.00;;;3.50;;
20986;SDS011;10652;50.306;8.570;2022-07-21T17:15:56;4.53;;;3.20;;
20986;SDS011;10652;50.306;8.570;2022-07-21T17:19:59;4.90;;;3.55;;
20986;SDS011;10652;50.306;8.570;2022-07-21T17:24:01;4.05;;;3.65;;
20986;SDS011;10652;50.306;8.570;2022-07-21T17:28:03;4.80;;;3.95;;
20986;SDS011;10652;50.306;8.570;2022-07-21T17:32:07;4.43;;;3.65;;
20986;SDS011;10652;50.306;8.570;2022-07-21T17:36:09;4.20;;;3.42;;
20986;SDS011;10652;50.306;8.570;2022-07-21T17:40:15;6.97;;;4.20;;
20986;SDS011;10652;50.306;8.570;2022-07-21T17:44:18;6.03;;;3.67;;
20986;SDS011;10652;50.306;8.570;2022-07-21T17:48:20;5.82;;;3.90;;
20986;SDS011;10652;50.306;8.570;2022-07-21T17:52:22;4.22;;;3.80;;
20986;SDS011;10652;50.306;8.570;2022-07-21T17:56:24;5.68;;;4.07;;
20986;SDS011;10652;50.306;8.570;2022-07-21T18:00:26;9.73;;;4.45;;
20986;SDS011;10652;50.306;8.570;2022-07-21T18:04:28;4.75;;;4.25;;
20986;SDS011;10652;50.306;8.570;2022-07-21T18:08:30;5.57;;;4.20;;
20986;SDS011;10652;50.306;8.570;2022-07-21T18:12:33;5.65;;;4.53;;
20986;SDS011;10652;50.306;8.570;2022-07-21T18:16:35;4.97;;;4.40;;
20986;SDS011;10652;50.306;8.570;2022-07-21T18:20:37;6.05;;;4.50;;
20986;SDS011;10652;50.306;8.570;2022-07-21T18:24:39;4.53;;;4.13;;
20986;SDS011;10652;50.306;8.570;2022-07-21T18:28:42;5.95;;;4.68;;
20986;SDS011;10652;50.306;8.570;2022-07-21T18:32:44;7.38;;;4.55;;
20986;SDS011;10652;50.306;8.570;2022-07-21T18:36:46;5.88;;;4.75;;
20986;SDS011;10652;50.306;8.570;2022-07-21T18:40:48;5.75;;;4.75;;
20986;SDS011;10652;50.306;8.570;2022-07-21T18:44:51;6.45;;;4.63;;
20986;SDS011;10652;50.306;8.570;2022-07-21T18:48:53;5.68;;;4.75;;
20986;SDS011;10652;50.306;8.570;2022-07-21T18:52:55;6.85;;;4.85;;
20986;SDS011;10652;50.306;8.570;2022-07-21T18:56:57;6.75;;;4.85;;
20986;SDS011;10652;50.306;8.570;2022-07-21T19:00:59;6.90;;;4.80;;
20986;SDS011;10652;50.306;8.570;2022-07-21T19:05:04;6.78;;;5.28;;
20986;SDS011;10652;50.306;8.570;2022-07-21T19:09:07;7.15;;;5.60;;
20986;SDS011;10652;50.306;8.570;2022-07-21T19:13:09;6.38;;;5.28;;
20986;SDS011;10652;50.306;8.570;2022-07-21T19:17:11;7.28;;;5.10;;
20986;SDS011;10652;50.306;8.570;2022-07-21T19:21:13;5.95;;;4.53;;
20986;SDS011;10652;50.306;8.570;2022-07-21T19:25:16;4.90;;;4.40;;
20986;SDS011;10652;50.306;8.570;2022-07-21T19:29:18;4.60;;;4.20;;
20986;SDS011;10652;50.306;8.570;2022-07-21T19:33:20;5.35;;;3.92;;
20986;SDS011;10652;50.306;8.570;2022-07-21T19:37:22;4.75;;;3.90;;
20986;SDS011;10652;50.306;8.570;2022-07-21T19:41:24;4.53;;;3.20;;
20986;SDS011;10652;50.306;8.570;2022-07-21T19:45:28;7.15;;;4.00;;
20986;SDS011;10652;50.306;8.570;2022-07-21T19:49:30;4.72;;;4.10;;
20986;SDS011;10652;50.306;8.570;2022-07-21T19:53:32;5.00;;;3.97;;
20986;SDS011;10652;50.306;8.570;2022-07-21T19:57:36;4.18;;;3.80;;
20986;SDS011;10652;50.306;8.570;2022-07-21T20:01:39;5.75;;;4.07;;
20986;SDS011;10652;50.306;8.570;2022-07-21T20:05:41;3.80;;;3.42;;
20986;SDS011;10652;50.306;8.570;2022-07-21T20:09:43;4.80;;;3.65;;
20986;SDS011;10652;50.306;8.570;2022-07-21T20:13:45;4.03;;;3.63;;
20986;SDS011;10652;50.306;8.570;2022-07-21T20:17:47;4.72;;;4.03;;
20986;SDS011;10652;50.306;8.570;2022-07-21T20:21:50;4.90;;;3.90;;
20986;SDS011;10652;50.306;8.570;2022-07-21T20:25:52;4.93;;;3.90;;
20986;SDS011;10652;50.306;8.570;2022-07-21T20:30:14;4.32;;;3.90;;
20986;SDS011;10652;50.306;8.570;2022-07-21T20:34:20;5.05;;;3.97;;
20986;SDS011;10652;50.306;8.570;2022-07-21T20:38:23;5.13;;;4.07;;
20986;SDS011;10652;50.306;8.570;2022-07-21T20:42:25;5.35;;;4.13;;
20986;SDS011;10652;50.306;8.570;2022-07-21T20:46:28;6.78;;;4.57;;
20986;SDS011;10652;50.306;8.570;2022-07-21T20:50:30;8.02;;;4.78;;
20986;SDS011;10652;50.306;8.570;2022-07-21T20:54:32;4.80;;;4.38;;
20986;SDS011;10652;50.306;8.570;2022-07-21T20:58:34;4.82;;;4.20;;
20986;SDS011;10652;50.306;8.570;2022-07-21T21:02:37;6.30;;;4.90;;
20986;SDS011;10652;50.306;8.570;2022-07-21T21:06:40;6.20;;;4.70;;
20986;SDS011;10652;50.306;8.570;2022-07-21T21:10:42;7.53;;;5.30;;
20986;SDS011;10652;50.306;8.570;2022-07-21T21:14:44;6.65;;;5.03;;
20986;SDS011;10652;50.306;8.570;2022-07-21T21:18:46;5.53;;;4.90;;
20986;SDS011;10652;50.306;8.570;2022-07-21T21:22:48;6.75;;;5.55;;
20986;SDS011;10652;50.306;8.570;2022-07-21T21:26:50;6.95;;;5.20;;
20986;SDS011;10652;50.306;8.570;2022-07-21T21:30:52;9.48;;;5.70;;
20986;SDS011;10652;50.306;8.570;2022-07-21T21:34:55;6.47;;;5.22;;
20986;SDS011;10652;50.306;8.570;2022-07-21T21:38:57;6.03;;;5.40;;
20986;SDS011;10652;50.306;8.570;2022-07-21T21:42:59;6.45;;;5.28;;
20986;SDS011;10652;50.306;8.570;2022-07-21T21:47:01;6.65;;;4.95;;
20986;SDS011;10652;50.306;8.570;2022-07-21T21:51:04;7.32;;;6.07;;
20986;SDS011;10652;50.306;8.570;2022-07-21T21:55:08;8.35;;;5.90;;
20986;SDS011;10652;50.306;8.570;2022-07-21T21:59:10;7.78;;;5.70;;
20986;SDS011;10652;50.306;8.570;2022-07-21T22:03:13;7.07;;;5.60;;
20986;SDS011;10652;50.306;8.570;2022-07-21T22:07:15;6.75;;;5.50;;
20986;SDS011;10652;50.306;8.570;2022-07-21T22:11:17;11.18;;;6.55;;
20986;SDS011;10652;50.306;8.570;2022-07-21T22:15:19;7.40;;;5.95;;
20986;SDS011;10652;50.306;8.570;2022-07-21T22:19:21;7.75;;;6.05;;
20986;SDS011;10652;50.306;8.570;2022-07-21T22:23:23;10.70;;;6.18;;
20986;SDS011;10652;50.306;8.570;2022-07-21T22:27:25;9.18;;;5.90;;
20986;SDS011;10652;50.306;8.570;2022-07-21T22:31:27;9.70;;;6.30;;
20986;SDS011;10652;50.306;8.570;2022-07-21T22:35:30;10.68;;;6.82;;
20986;SDS011;10652;50.306;8.570;2022-07-21T22:39:32;9.18;;;6.05;;
20986;SDS011;10652;50.306;8.570;2022-07-21T22:43:34;10.43;;;6.50;;
20986;SDS011;10652;50.306;8.570;2022-07-21T22:47:36;8.30;;;6.40;;
20986;SDS011;10652;50.306;8.570;2022-07-21T22:51:38;8.32;;;6.38;;
20986;SDS011;10652;50.306;8.570;2022-07-21T22:55:40;9.15;;;6.88;;
20986;SDS011;10652;50.306;8.570;2022-07-21T22:59:43;8.13;;;6.35;;
20986;SDS011;10652;50.306;8.570;2022-07-21T23:03:46;9.65;;;6.70;;
20986;SDS011;10652;50.306;8.570;2022-07-21T23:07:48;10.52;;;6.45;;
20986;SDS011;10652;50.306;8.570;2022-07-21T23:11:50;9.13;;;6.75;;
20986;SDS011;10652;50.306;8.570;2022-07-21T23:15:52;9.65;;;6.63;;
20986;SDS011;10652;50.306;8.570;2022-07-21T23:19:54;8.98;;;6.38;;
20986;SDS011;10652;50.306;8.570;2022-07-21T23:23:56;8.90;;;6.78;;
20986;SDS011;10652;50.306;8.570;2022-07-21T23:27:59;10.20;;;6.30;;
20986;SDS011;10652;50.306;8.570;2022-07-21T23:32:02;8.48;;;6.50;;
20986;SDS011;10652;50.306;8.570;2022-07-21T23:36:08;8.30;;;6.18;;
20986;SDS011;10652;50.306;8.570;2022-07-21T23:40:10;7.85;;;6.28;;
20986;SDS011;10652;50.306;8.570;2022-07-21T23:44:12;8.63;;;6.18;;
20986;SDS011;10652;50.306;8.570;2022-07-21T23:48:14;8.98;;;6.40;;
20986;SDS011;10652;50.306;8.570;2022-07-21T23:52:16;7.35;;;5.97;;
20986;SDS011;10652;50.306;8.570;2022-07-21T23:56:18;7.43;;;5.95;;
